sensor_id;sensor_type;location;lat;lon;timestamp;P1;durP1;ratioP1;P2;durP2;ratioP2
20567;SDS011;10442;49.932;11.592;2023-03-04T00:01:49;10.80;;;8.87;;
20567;SDS011;10442;49.932;11.592;2023-03-04T00:04:17;11.40;;;8.50;;
20567;SDS011;10442;49.932;11.592;2023-03-04T00:06:44;12.20;;;9.57;;
20567;SDS011;10442;49.932;11.592;2023-03-04T00:09:12;10.27;;;8.33;;
20567;SDS011;10442;49.932;11.592;2023-03-04T00:11:39;9.77;;;7.60;;
20567;SDS011;10442;49.932;11.592;2023-03-04T00:14:06;11.67;;;9.17;;
20567;SDS011;10442;49.932;11.592;2023-03-04T00:16:33;12.73;;;9.97;;
20567;SDS011;10442;49.932;11.592;2023-03-04T00:19:01;12.73;;;8.87;;
20567;SDS011;10442;49.932;11.592;2023-03-04T00:21:29;15.17;;;9.90;;
20567;SDS011;10442;49.932;11.592;2023-03-04T00:23:56;13.93;;;10.00;;
20567;SDS011;10442;49.932;11.592;2023-03-04T00:26:23;11.67;;;8.97;;
20567;SDS011;10442;49.932;11.592;2023-03-04T00:28:50;13.93;;;11.03;;
20567;SDS011;10442;49.932;11.592;2023-03-04T00:31:18;15.93;;;10.27;;
20567;SDS011;10442;49.932;11.592;2023-03-04T00:33:45;12.57;;;9.63;;
20567;SDS011;10442;49.932;11.592;2023-03-04T00:36:12;12.10;;;9.63;;
20567;SDS011;10442;49.932;11.592;2023-03-04T00:38:40;14.63;;;9.50;;
20567;SDS011;10442;49.932;11.592;2023-03-04T00:41:07;13.07;;;9.73;;
20567;SDS011;10442;49.932;11.592;2023-03-04T00:43:34;9.57;;;8.57;;
20567;SDS011;10442;49.932;11.592;2023-03-04T00:46:02;9.53;;;8.47;;
20567;SDS011;10442;49.932;11.592;2023-03-04T00:48:29;11.97;;;9.77;;
20567;SDS011;10442;49.932;11.592;2023-03-04T00:50:56;13.33;;;9.30;;
20567;SDS011;10442;49.932;11.592;2023-03-04T00:53:24;10.43;;;9.13;;
20567;SDS011;10442;49.932;11.592;2023-03-04T00:55:51;12.03;;;10.33;;
20567;SDS011;10442;49.932;11.592;2023-03-04T00:58:18;11.70;;;9.37;;
20567;SDS011;10442;49.932;11.592;2023-03-04T01:00:46;13.53;;;9.80;;
20567;SDS011;10442;49.932;11.592;2023-03-04T01:03:13;10.77;;;9.27;;
20567;SDS011;10442;49.932;11.592;2023-03-04T01:05:40;12.03;;;9.83;;
20567;SDS011;10442;49.932;11.592;2023-03-04T01:08:07;12.00;;;8.83;;
20567;SDS011;10442;49.932;11.592;2023-03-04T01:10:35;11.43;;;10.13;;
20567;SDS011;10442;49.932;11.592;2023-03-04T01:13:02;11.20;;;8.97;;
20567;SDS011;10442;49.932;11.592;2023-03-04T01:15:30;11.43;;;9.80;;
20567;SDS011;10442;49.932;11.592;2023-03-04T01:17:57;10.33;;;9.20;;
20567;SDS011;10442;49.932;11.592;2023-03-04T01:20:25;11.40;;;9.57;;
20567;SDS011;10442;49.932;11.592;2023-03-04T01:22:53;9.40;;;8.20;;
20567;SDS011;10442;49.932;11.592;2023-03-04T01:25:20;13.33;;;9.73;;
20567;SDS011;10442;49.932;11.592;2023-03-04T01:27:48;11.23;;;9.67;;
20567;SDS011;10442;49.932;11.592;2023-03-04T01:30:18;12.50;;;11.17;;
20567;SDS011;10442;49.932;11.592;2023-03-04T01:32:45;10.60;;;9.03;;
20567;SDS011;10442;49.932;11.592;2023-03-04T01:35:14;10.67;;;9.63;;
20567;SDS011;10442;49.932;11.592;2023-03-04T01:37:42;11.37;;;9.43;;
20567;SDS011;10442;49.932;11.592;2023-03-04T01:40:09;13.30;;;10.13;;
20567;SDS011;10442;49.932;11.592;2023-03-04T01:42:37;11.80;;;9.90;;
20567;SDS011;10442;49.932;11.592;2023-03-04T01:45:05;12.83;;;9.67;;
20567;SDS011;10442;49.932;11.592;2023-03-04T01:47:36;13.77;;;10.23;;
20567;SDS011;10442;49.932;11.592;2023-03-04T01:50:05;9.47;;;8.43;;
20567;SDS011;10442;49.932;11.592;2023-03-04T01:52:39;12.47;;;9.10;;
20567;SDS011;10442;49.932;11.592;2023-03-04T01:55:13;14.03;;;9.63;;
20567;SDS011;10442;49.932;11.592;2023-03-04T01:57:42;10.13;;;9.03;;
20567;SDS011;10442;49.932;11.592;2023-03-04T02:00:20;11.33;;;9.07;;
20567;SDS011;10442;49.932;11.592;2023-03-04T02:02:54;10.97;;;9.30;;
20567;SDS011;10442;49.932;11.592;2023-03-04T02:05:25;9.73;;;8.50;;
20567;SDS011;10442;49.932;11.592;2023-03-04T02:07:54;12.53;;;9.47;;
20567;SDS011;10442;49.932;11.592;2023-03-04T02:10:23;9.67;;;8.60;;
20567;SDS011;10442;49.932;11.592;2023-03-04T02:12:51;10.40;;;9.30;;
20567;SDS011;10442;49.932;11.592;2023-03-04T02:15:19;11.50;;;9.93;;
20567;SDS011;10442;49.932;11.592;2023-03-04T02:17:46;10.17;;;9.10;;
20567;SDS011;10442;49.932;11.592;2023-03-04T02:20:17;10.63;;;9.53;;
20567;SDS011;10442;49.932;11.592;2023-03-04T02:23:02;10.50;;;9.03;;
20567;SDS011;10442;49.932;11.592;2023-03-04T02:25:40;10.63;;;9.20;;
20567;SDS011;10442;49.932;11.592;2023-03-04T02:28:11;12.87;;;9.77;;
20567;SDS011;10442;49.932;11.592;2023-03-04T02:30:39;9.17;;;8.13;;
20567;SDS011;10442;49.932;11.592;2023-03-04T02:33:13;9.23;;;8.33;;
20567;SDS011;10442;49.932;11.592;2023-03-04T02:35:43;11.43;;;8.97;;
20567;SDS011;10442;49.932;11.592;2023-03-04T02:38:11;9.73;;;8.63;;
20567;SDS011;10442;49.932;11.592;2023-03-04T02:40:39;9.60;;;8.60;;
20567;SDS011;10442;49.932;11.592;2023-03-04T02:43:10;11.63;;;10.03;;
20567;SDS011;10442;49.932;11.592;2023-03-04T02:48:13;9.27;;;8.37;;
20567;SDS011;10442;49.932;11.592;2023-03-04T02:50:48;11.03;;;9.17;;
20567;SDS011;10442;49.932;11.592;2023-03-04T02:53:17;9.60;;;8.60;;
20567;SDS011;10442;49.932;11.592;2023-03-04T02:55:47;9.60;;;8.60;;
20567;SDS011;10442;49.932;11.592;2023-03-04T02:58:17;9.80;;;8.07;;
20567;SDS011;10442;49.932;11.592;2023-03-04T03:00:45;10.17;;;8.97;;
20567;SDS011;10442;49.932;11.592;2023-03-04T03:03:14;8.70;;;7.90;;
20567;SDS011;10442;49.932;11.592;2023-03-04T03:05:41;11.30;;;9.47;;
20567;SDS011;10442;49.932;11.592;2023-03-04T03:08:09;11.70;;;9.63;;
20567;SDS011;10442;49.932;11.592;2023-03-04T03:10:38;10.17;;;9.10;;
20567;SDS011;10442;49.932;11.592;2023-03-04T03:13:07;11.13;;;9.63;;
20567;SDS011;10442;49.932;11.592;2023-03-04T03:15:34;11.60;;;9.50;;
20567;SDS011;10442;49.932;11.592;2023-03-04T03:18:04;11.50;;;10.30;;
20567;SDS011;10442;49.932;11.592;2023-03-04T03:20:32;10.87;;;9.77;;
20567;SDS011;10442;49.932;11.592;2023-03-04T03:23:00;11.27;;;10.07;;
20567;SDS011;10442;49.932;11.592;2023-03-04T03:25:29;12.10;;;9.80;;
20567;SDS011;10442;49.932;11.592;2023-03-04T03:27:56;11.87;;;10.00;;
20567;SDS011;10442;49.932;11.592;2023-03-04T03:30:24;11.97;;;10.77;;
20567;SDS011;10442;49.932;11.592;2023-03-04T03:32:52;13.30;;;11.33;;
20567;SDS011;10442;49.932;11.592;2023-03-04T03:35:19;12.20;;;10.87;;
20567;SDS011;10442;49.932;11.592;2023-03-04T03:37:47;11.97;;;10.70;;
20567;SDS011;10442;49.932;11.592;2023-03-04T03:40:15;11.13;;;9.93;;
20567;SDS011;10442;49.932;11.592;2023-03-04T03:42:42;10.83;;;9.67;;
20567;SDS011;10442;49.932;11.592;2023-03-04T03:45:09;13.77;;;11.00;;
20567;SDS011;10442;49.932;11.592;2023-03-04T03:47:38;11.33;;;9.80;;
20567;SDS011;10442;49.932;11.592;2023-03-04T03:50:05;12.23;;;10.93;;
20567;SDS011;10442;49.932;11.592;2023-03-04T03:52:33;12.70;;;10.17;;
20567;SDS011;10442;49.932;11.592;2023-03-04T03:55:00;11.37;;;9.90;;
20567;SDS011;10442;49.932;11.592;2023-03-04T03:57:28;10.53;;;9.00;;
20567;SDS011;10442;49.932;11.592;2023-03-04T03:59:55;11.50;;;9.20;;
20567;SDS011;10442;49.932;11.592;2023-03-04T04:02:23;10.90;;;9.20;;
20567;SDS011;10442;49.932;11.592;2023-03-04T04:04:50;11.33;;;10.13;;
20567;SDS011;10442;49.932;11.592;2023-03-04T04:07:17;11.37;;;9.97;;
20567;SDS011;10442;49.932;11.592;2023-03-04T04:09:45;11.27;;;9.50;;
20567;SDS011;10442;49.932;11.592;2023-03-04T04:12:14;11.23;;;9.10;;
20567;SDS011;10442;49.932;11.592;2023-03-04T04:14:42;12.07;;;9.73;;
20567;SDS011;10442;49.932;11.592;2023-03-04T04:17:10;12.37;;;9.33;;
20567;SDS011;10442;49.932;11.592;2023-03-04T04:19:37;9.53;;;8.53;;
20567;SDS011;10442;49.932;11.592;2023-03-04T04:22:06;12.07;;;9.33;;
20567;SDS011;10442;49.932;11.592;2023-03-04T04:24:38;11.73;;;9.50;;
20567;SDS011;10442;49.932;11.592;2023-03-04T04:27:06;11.90;;;9.90;;
20567;SDS011;10442;49.932;11.592;2023-03-04T04:29:33;11.40;;;10.03;;
20567;SDS011;10442;49.932;11.592;2023-03-04T04:32:01;11.87;;;9.67;;
20567;SDS011;10442;49.932;11.592;2023-03-04T04:34:28;14.00;;;10.73;;
20567;SDS011;10442;49.932;11.592;2023-03-04T04:36:55;10.87;;;9.77;;
20567;SDS011;10442;49.932;11.592;2023-03-04T04:39:23;11.20;;;9.83;;
20567;SDS011;10442;49.932;11.592;2023-03-04T04:41:50;13.47;;;10.37;;
20567;SDS011;10442;49.932;11.592;2023-03-04T04:44:17;13.23;;;10.63;;
20567;SDS011;10442;49.932;11.592;2023-03-04T04:46:44;13.43;;;9.93;;
20567;SDS011;10442;49.932;11.592;2023-03-04T04:49:12;12.47;;;10.33;;
20567;SDS011;10442;49.932;11.592;2023-03-04T04:51:39;11.30;;;8.90;;
20567;SDS011;10442;49.932;11.592;2023-03-04T04:54:07;11.20;;;10.03;;
20567;SDS011;10442;49.932;11.592;2023-03-04T04:56:36;11.00;;;9.83;;
20567;SDS011;10442;49.932;11.592;2023-03-04T04:59:03;12.50;;;10.17;;
20567;SDS011;10442;49.932;11.592;2023-03-04T05:01:34;12.87;;;10.60;;
20567;SDS011;10442;49.932;11.592;2023-03-04T05:04:01;11.47;;;9.53;;
20567;SDS011;10442;49.932;11.592;2023-03-04T05:06:29;13.63;;;9.33;;
20567;SDS011;10442;49.932;11.592;2023-03-04T05:08:56;12.33;;;10.90;;
20567;SDS011;10442;49.932;11.592;2023-03-04T05:11:23;13.87;;;11.37;;
20567;SDS011;10442;49.932;11.592;2023-03-04T05:13:51;14.90;;;12.20;;
20567;SDS011;10442;49.932;11.592;2023-03-04T05:16:18;10.63;;;9.53;;
20567;SDS011;10442;49.932;11.592;2023-03-04T05:18:45;13.33;;;9.87;;
20567;SDS011;10442;49.932;11.592;2023-03-04T05:21:13;13.77;;;10.57;;
20567;SDS011;10442;49.932;11.592;2023-03-04T05:23:41;13.27;;;11.10;;
20567;SDS011;10442;49.932;11.592;2023-03-04T05:26:10;11.67;;;9.80;;
20567;SDS011;10442;49.932;11.592;2023-03-04T05:28:40;12.57;;;10.33;;
20567;SDS011;10442;49.932;11.592;2023-03-04T05:31:07;13.73;;;11.13;;
20567;SDS011;10442;49.932;11.592;2023-03-04T05:33:35;12.80;;;10.30;;
20567;SDS011;10442;49.932;11.592;2023-03-04T05:36:04;12.37;;;10.37;;
20567;SDS011;10442;49.932;11.592;2023-03-04T05:38:32;12.00;;;9.07;;
20567;SDS011;10442;49.932;11.592;2023-03-04T05:41:01;11.60;;;10.13;;
20567;SDS011;10442;49.932;11.592;2023-03-04T05:43:30;13.60;;;10.30;;
20567;SDS011;10442;49.932;11.592;2023-03-04T05:46:00;14.50;;;10.50;;
20567;SDS011;10442;49.932;11.592;2023-03-04T05:48:28;12.17;;;10.13;;
20567;SDS011;10442;49.932;11.592;2023-03-04T05:50:56;11.33;;;9.90;;
20567;SDS011;10442;49.932;11.592;2023-03-04T05:53:25;12.40;;;9.53;;
20567;SDS011;10442;49.932;11.592;2023-03-04T05:55:53;13.07;;;10.97;;
20567;SDS011;10442;49.932;11.592;2023-03-04T05:58:21;13.37;;;11.47;;
20567;SDS011;10442;49.932;11.592;2023-03-04T06:00:48;13.37;;;11.80;;
20567;SDS011;10442;49.932;11.592;2023-03-04T06:03:17;13.90;;;10.93;;
20567;SDS011;10442;49.932;11.592;2023-03-04T06:05:47;14.23;;;11.10;;
20567;SDS011;10442;49.932;11.592;2023-03-04T06:08:14;11.63;;;10.27;;
20567;SDS011;10442;49.932;11.592;2023-03-04T06:10:41;13.93;;;10.40;;
20567;SDS011;10442;49.932;11.592;2023-03-04T06:13:09;15.17;;;11.53;;
20567;SDS011;10442;49.932;11.592;2023-03-04T06:15:37;11.13;;;10.03;;
20567;SDS011;10442;49.932;11.592;2023-03-04T06:18:06;13.97;;;12.03;;
20567;SDS011;10442;49.932;11.592;2023-03-04T06:20:34;14.07;;;11.30;;
20567;SDS011;10442;49.932;11.592;2023-03-04T06:23:01;12.93;;;10.70;;
20567;SDS011;10442;49.932;11.592;2023-03-04T06:25:29;12.60;;;10.40;;
20567;SDS011;10442;49.932;11.592;2023-03-04T06:27:57;11.93;;;10.33;;
20567;SDS011;10442;49.932;11.592;2023-03-04T06:30:24;12.90;;;10.70;;
20567;SDS011;10442;49.932;11.592;2023-03-04T06:32:52;12.40;;;11.13;;
20567;SDS011;10442;49.932;11.592;2023-03-04T06:35:19;13.57;;;11.73;;
20567;SDS011;10442;49.932;11.592;2023-03-04T06:37:47;13.60;;;10.80;;
20567;SDS011;10442;49.932;11.592;2023-03-04T06:40:14;12.13;;;10.57;;
20567;SDS011;10442;49.932;11.592;2023-03-04T06:42:42;13.23;;;10.13;;
20567;SDS011;10442;49.932;11.592;2023-03-04T06:45:10;11.83;;;10.50;;
20567;SDS011;10442;49.932;11.592;2023-03-04T06:47:37;14.53;;;10.27;;
20567;SDS011;10442;49.932;11.592;2023-03-04T06:50:05;13.80;;;10.47;;
20567;SDS011;10442;49.932;11.592;2023-03-04T06:52:33;13.30;;;11.30;;
20567;SDS011;10442;49.932;11.592;2023-03-04T06:55:00;13.90;;;10.90;;
20567;SDS011;10442;49.932;11.592;2023-03-04T06:57:27;11.90;;;10.37;;
20567;SDS011;10442;49.932;11.592;2023-03-04T06:59:54;12.03;;;9.67;;
20567;SDS011;10442;49.932;11.592;2023-03-04T07:02:22;12.97;;;11.50;;
20567;SDS011;10442;49.932;11.592;2023-03-04T07:04:49;14.00;;;11.53;;
20567;SDS011;10442;49.932;11.592;2023-03-04T07:07:17;12.97;;;11.47;;
20567;SDS011;10442;49.932;11.592;2023-03-04T07:09:45;13.03;;;11.33;;
20567;SDS011;10442;49.932;11.592;2023-03-04T07:12:12;12.63;;;10.73;;
20567;SDS011;10442;49.932;11.592;2023-03-04T07:14:40;12.77;;;11.23;;
20567;SDS011;10442;49.932;11.592;2023-03-04T07:17:07;12.63;;;11.33;;
20567;SDS011;10442;49.932;11.592;2023-03-04T07:19:35;14.03;;;11.93;;
20567;SDS011;10442;49.932;11.592;2023-03-04T07:22:02;15.83;;;12.03;;
20567;SDS011;10442;49.932;11.592;2023-03-04T07:24:29;17.43;;;12.20;;
20567;SDS011;10442;49.932;11.592;2023-03-04T07:26:57;12.50;;;11.03;;
20567;SDS011;10442;49.932;11.592;2023-03-04T07:29:24;14.80;;;10.87;;
20567;SDS011;10442;49.932;11.592;2023-03-04T07:31:51;13.40;;;11.57;;
20567;SDS011;10442;49.932;11.592;2023-03-04T07:34:19;12.90;;;11.27;;
20567;SDS011;10442;49.932;11.592;2023-03-04T07:36:47;14.53;;;10.80;;
20567;SDS011;10442;49.932;11.592;2023-03-04T07:39:14;15.80;;;12.03;;
20567;SDS011;10442;49.932;11.592;2023-03-04T07:41:41;14.50;;;12.27;;
20567;SDS011;10442;49.932;11.592;2023-03-04T07:44:10;12.57;;;10.30;;
20567;SDS011;10442;49.932;11.592;2023-03-04T07:46:39;14.33;;;11.70;;
20567;SDS011;10442;49.932;11.592;2023-03-04T07:49:06;12.50;;;10.83;;
20567;SDS011;10442;49.932;11.592;2023-03-04T07:51:34;13.33;;;11.47;;
20567;SDS011;10442;49.932;11.592;2023-03-04T07:54:01;14.13;;;11.50;;
20567;SDS011;10442;49.932;11.592;2023-03-04T07:56:30;12.83;;;10.97;;
20567;SDS011;10442;49.932;11.592;2023-03-04T07:58:59;14.70;;;11.63;;
20567;SDS011;10442;49.932;11.592;2023-03-04T08:01:28;16.80;;;11.67;;
20567;SDS011;10442;49.932;11.592;2023-03-04T08:04:00;12.97;;;10.90;;
20567;SDS011;10442;49.932;11.592;2023-03-04T08:06:30;14.63;;;11.67;;
20567;SDS011;10442;49.932;11.592;2023-03-04T08:08:59;13.77;;;12.33;;
20567;SDS011;10442;49.932;11.592;2023-03-04T08:11:28;15.20;;;12.80;;
20567;SDS011;10442;49.932;11.592;2023-03-04T08:13:56;13.77;;;11.77;;
20567;SDS011;10442;49.932;11.592;2023-03-04T08:16:24;13.77;;;12.27;;
20567;SDS011;10442;49.932;11.592;2023-03-04T08:18:54;13.67;;;11.37;;
20567;SDS011;10442;49.932;11.592;2023-03-04T08:21:23;14.60;;;11.80;;
20567;SDS011;10442;49.932;11.592;2023-03-04T08:23:52;14.40;;;11.83;;
20567;SDS011;10442;49.932;11.592;2023-03-04T08:26:24;15.47;;;12.07;;
20567;SDS011;10442;49.932;11.592;2023-03-04T08:28:54;12.57;;;10.73;;
20567;SDS011;10442;49.932;11.592;2023-03-04T08:31:22;14.07;;;11.73;;
20567;SDS011;10442;49.932;11.592;2023-03-04T08:33:51;15.43;;;11.83;;
20567;SDS011;10442;49.932;11.592;2023-03-04T08:36:19;15.43;;;11.27;;
20567;SDS011;10442;49.932;11.592;2023-03-04T08:38:46;14.30;;;12.77;;
20567;SDS011;10442;49.932;11.592;2023-03-04T08:41:14;16.27;;;13.03;;
20567;SDS011;10442;49.932;11.592;2023-03-04T08:43:42;12.47;;;10.67;;
20567;SDS011;10442;49.932;11.592;2023-03-04T08:46:10;16.07;;;13.63;;
20567;SDS011;10442;49.932;11.592;2023-03-04T08:48:37;12.87;;;11.53;;
20567;SDS011;10442;49.932;11.592;2023-03-04T08:51:08;13.77;;;11.73;;
20567;SDS011;10442;49.932;11.592;2023-03-04T08:53:37;16.53;;;11.77;;
20567;SDS011;10442;49.932;11.592;2023-03-04T08:56:05;13.30;;;11.33;;
20567;SDS011;10442;49.932;11.592;2023-03-04T08:58:34;14.50;;;12.90;;
20567;SDS011;10442;49.932;11.592;2023-03-04T09:01:02;15.50;;;13.87;;
20567;SDS011;10442;49.932;11.592;2023-03-04T09:03:30;14.37;;;11.73;;
20567;SDS011;10442;49.932;11.592;2023-03-04T09:05:57;12.63;;;10.50;;
20567;SDS011;10442;49.932;11.592;2023-03-04T09:08:27;11.83;;;10.63;;
20567;SDS011;10442;49.932;11.592;2023-03-04T09:10:55;14.83;;;11.70;;
20567;SDS011;10442;49.932;11.592;2023-03-04T09:13:23;17.80;;;11.27;;
20567;SDS011;10442;49.932;11.592;2023-03-04T09:15:52;12.93;;;11.43;;
20567;SDS011;10442;49.932;11.592;2023-03-04T09:18:20;14.63;;;11.50;;
20567;SDS011;10442;49.932;11.592;2023-03-04T09:20:49;13.67;;;11.83;;
20567;SDS011;10442;49.932;11.592;2023-03-04T09:23:17;13.27;;;11.40;;
20567;SDS011;10442;49.932;11.592;2023-03-04T09:25:45;14.70;;;11.70;;
20567;SDS011;10442;49.932;11.592;2023-03-04T09:28:13;16.73;;;11.50;;
20567;SDS011;10442;49.932;11.592;2023-03-04T09:30:41;14.37;;;10.47;;
20567;SDS011;10442;49.932;11.592;2023-03-04T09:33:09;13.90;;;10.83;;
20567;SDS011;10442;49.932;11.592;2023-03-04T09:35:37;10.93;;;9.73;;
20567;SDS011;10442;49.932;11.592;2023-03-04T09:38:04;13.10;;;10.53;;
20567;SDS011;10442;49.932;11.592;2023-03-04T09:40:36;13.33;;;11.40;;
20567;SDS011;10442;49.932;11.592;2023-03-04T09:43:11;13.73;;;9.63;;
20567;SDS011;10442;49.932;11.592;2023-03-04T09:45:48;13.70;;;9.90;;
20567;SDS011;10442;49.932;11.592;2023-03-04T09:48:23;13.60;;;9.73;;
20567;SDS011;10442;49.932;11.592;2023-03-04T09:56:28;12.57;;;9.80;;
20567;SDS011;10442;49.932;11.592;2023-03-04T10:01:55;10.33;;;8.90;;
20567;SDS011;10442;49.932;11.592;2023-03-04T10:06:52;13.67;;;8.93;;
20567;SDS011;10442;49.932;11.592;2023-03-04T10:09:29;15.17;;;8.67;;
20567;SDS011;10442;49.932;11.592;2023-03-04T10:12:11;15.07;;;9.73;;
20567;SDS011;10442;49.932;11.592;2023-03-04T10:19:52;11.67;;;8.23;;
20567;SDS011;10442;49.932;11.592;2023-03-04T10:27:49;10.30;;;7.60;;
20567;SDS011;10442;49.932;11.592;2023-03-04T10:33:17;14.50;;;7.80;;
20567;SDS011;10442;49.932;11.592;2023-03-04T10:35:49;12.90;;;8.13;;
20567;SDS011;10442;49.932;11.592;2023-03-04T10:38:22;11.83;;;8.13;;
20567;SDS011;10442;49.932;11.592;2023-03-04T10:40:50;15.83;;;8.93;;
20567;SDS011;10442;49.932;11.592;2023-03-04T10:43:18;11.80;;;8.43;;
20567;SDS011;10442;49.932;11.592;2023-03-04T10:45:47;10.37;;;8.17;;
20567;SDS011;10442;49.932;11.592;2023-03-04T10:48:27;9.93;;;7.57;;
20567;SDS011;10442;49.932;11.592;2023-03-04T10:51:09;8.93;;;6.93;;
20567;SDS011;10442;49.932;11.592;2023-03-04T10:53:38;15.13;;;8.60;;
20567;SDS011;10442;49.932;11.592;2023-03-04T10:56:29;12.00;;;8.57;;
20567;SDS011;10442;49.932;11.592;2023-03-04T11:02:16;10.73;;;7.80;;
20567;SDS011;10442;49.932;11.592;2023-03-04T11:04:49;14.77;;;9.97;;
20567;SDS011;10442;49.932;11.592;2023-03-04T11:07:20;13.07;;;8.20;;
20567;SDS011;10442;49.932;11.592;2023-03-04T11:09:49;13.17;;;7.70;;
20567;SDS011;10442;49.932;11.592;2023-03-04T11:12:19;11.07;;;8.40;;
20567;SDS011;10442;49.932;11.592;2023-03-04T11:14:49;13.63;;;8.23;;
20567;SDS011;10442;49.932;11.592;2023-03-04T11:19:53;11.57;;;8.17;;
20567;SDS011;10442;49.932;11.592;2023-03-04T11:22:36;15.47;;;8.67;;
20567;SDS011;10442;49.932;11.592;2023-03-04T11:25:11;13.00;;;8.33;;
20567;SDS011;10442;49.932;11.592;2023-03-04T11:27:51;14.00;;;7.70;;
20567;SDS011;10442;49.932;11.592;2023-03-04T11:30:26;13.90;;;8.67;;
20567;SDS011;10442;49.932;11.592;2023-03-04T11:35:43;15.63;;;9.50;;
20567;SDS011;10442;49.932;11.592;2023-03-04T11:38:26;16.23;;;10.23;;
20567;SDS011;10442;49.932;11.592;2023-03-04T11:43:58;14.83;;;10.07;;
20567;SDS011;10442;49.932;11.592;2023-03-04T11:46:38;13.67;;;10.07;;
20567;SDS011;10442;49.932;11.592;2023-03-04T12:00:43;16.47;;;11.67;;
20567;SDS011;10442;49.932;11.592;2023-03-04T12:09:02;11.63;;;9.30;;
20567;SDS011;10442;49.932;11.592;2023-03-04T12:31:35;13.60;;;9.57;;
20567;SDS011;10442;49.932;11.592;2023-03-04T12:45:07;15.17;;;10.33;;
20567;SDS011;10442;49.932;11.592;2023-03-04T12:47:37;13.03;;;9.53;;
20567;SDS011;10442;49.932;11.592;2023-03-04T12:55:45;15.80;;;10.33;;
20567;SDS011;10442;49.932;11.592;2023-03-04T12:58:24;14.40;;;9.33;;
20567;SDS011;10442;49.932;11.592;2023-03-04T13:00:56;18.77;;;9.83;;
20567;SDS011;10442;49.932;11.592;2023-03-04T13:03:44;15.17;;;10.27;;
20567;SDS011;10442;49.932;11.592;2023-03-04T13:06:38;13.87;;;10.73;;
20567;SDS011;10442;49.932;11.592;2023-03-04T13:09:25;21.57;;;11.70;;
20567;SDS011;10442;49.932;11.592;2023-03-04T13:12:10;15.50;;;10.97;;
20567;SDS011;10442;49.932;11.592;2023-03-04T13:15:13;14.17;;;10.40;;
20567;SDS011;10442;49.932;11.592;2023-03-04T13:17:46;16.70;;;10.23;;
20567;SDS011;10442;49.932;11.592;2023-03-04T13:20:23;14.60;;;9.87;;
20567;SDS011;10442;49.932;11.592;2023-03-04T13:22:54;14.00;;;10.70;;
20567;SDS011;10442;49.932;11.592;2023-03-04T13:25:31;15.20;;;10.13;;
20567;SDS011;10442;49.932;11.592;2023-03-04T13:28:12;10.87;;;9.07;;
20567;SDS011;10442;49.932;11.592;2023-03-04T13:35:53;10.87;;;8.37;;
20567;SDS011;10442;49.932;11.592;2023-03-04T13:41:06;15.00;;;10.80;;
20567;SDS011;10442;49.932;11.592;2023-03-04T13:43:53;15.23;;;9.70;;
20567;SDS011;10442;49.932;11.592;2023-03-04T13:51:21;14.00;;;9.70;;
20567;SDS011;10442;49.932;11.592;2023-03-04T14:04:18;14.30;;;9.23;;
20567;SDS011;10442;49.932;11.592;2023-03-04T14:06:50;13.40;;;10.33;;
20567;SDS011;10442;49.932;11.592;2023-03-04T14:09:24;14.77;;;9.90;;
20567;SDS011;10442;49.932;11.592;2023-03-04T14:11:53;19.57;;;11.37;;
20567;SDS011;10442;49.932;11.592;2023-03-04T14:14:28;12.67;;;8.67;;
20567;SDS011;10442;49.932;11.592;2023-03-04T14:16:59;13.37;;;9.37;;
20567;SDS011;10442;49.932;11.592;2023-03-04T14:19:42;13.43;;;9.23;;
20567;SDS011;10442;49.932;11.592;2023-03-04T14:24:56;11.83;;;8.27;;
20567;SDS011;10442;49.932;11.592;2023-03-04T14:27:26;12.33;;;8.63;;
20567;SDS011;10442;49.932;11.592;2023-03-04T14:29:56;12.10;;;9.00;;
20567;SDS011;10442;49.932;11.592;2023-03-04T14:32:25;15.20;;;10.37;;
20567;SDS011;10442;49.932;11.592;2023-03-04T14:34:58;12.63;;;9.27;;
20567;SDS011;10442;49.932;11.592;2023-03-04T14:37:48;14.20;;;9.73;;
20567;SDS011;10442;49.932;11.592;2023-03-04T14:40:28;9.63;;;8.07;;
20567;SDS011;10442;49.932;11.592;2023-03-04T14:43:06;16.70;;;10.00;;
20567;SDS011;10442;49.932;11.592;2023-03-04T14:45:42;10.50;;;8.47;;
20567;SDS011;10442;49.932;11.592;2023-03-04T14:48:31;11.20;;;8.20;;
20567;SDS011;10442;49.932;11.592;2023-03-04T14:51:00;14.37;;;9.57;;
20567;SDS011;10442;49.932;11.592;2023-03-04T14:53:29;12.40;;;8.73;;
20567;SDS011;10442;49.932;11.592;2023-03-04T14:55:59;10.40;;;8.27;;
20567;SDS011;10442;49.932;11.592;2023-03-04T14:58:32;16.83;;;9.33;;
20567;SDS011;10442;49.932;11.592;2023-03-04T15:01:17;11.43;;;8.03;;
20567;SDS011;10442;49.932;11.592;2023-03-04T15:03:59;13.73;;;9.20;;
20567;SDS011;10442;49.932;11.592;2023-03-04T15:06:33;14.33;;;8.97;;
20567;SDS011;10442;49.932;11.592;2023-03-04T15:09:06;20.40;;;9.43;;
20567;SDS011;10442;49.932;11.592;2023-03-04T15:11:48;11.00;;;8.63;;
20567;SDS011;10442;49.932;11.592;2023-03-04T15:17:31;12.83;;;8.73;;
20567;SDS011;10442;49.932;11.592;2023-03-04T15:22:35;9.40;;;7.37;;
20567;SDS011;10442;49.932;11.592;2023-03-04T15:25:22;16.40;;;8.43;;
20567;SDS011;10442;49.932;11.592;2023-03-04T15:27:50;10.10;;;7.97;;
20567;SDS011;10442;49.932;11.592;2023-03-04T15:30:32;13.47;;;9.23;;
20567;SDS011;10442;49.932;11.592;2023-03-04T15:33:00;12.20;;;7.93;;
20567;SDS011;10442;49.932;11.592;2023-03-04T15:35:29;12.03;;;7.50;;
20567;SDS011;10442;49.932;11.592;2023-03-04T15:37:59;16.43;;;7.90;;
20567;SDS011;10442;49.932;11.592;2023-03-04T15:40:37;11.40;;;9.43;;
20567;SDS011;10442;49.932;11.592;2023-03-04T15:43:16;13.07;;;8.47;;
20567;SDS011;10442;49.932;11.592;2023-03-04T15:45:45;15.57;;;8.80;;
20567;SDS011;10442;49.932;11.592;2023-03-04T15:48:14;17.63;;;9.10;;
20567;SDS011;10442;49.932;11.592;2023-03-04T15:50:56;10.23;;;8.03;;
20567;SDS011;10442;49.932;11.592;2023-03-04T15:53:35;13.03;;;7.37;;
20567;SDS011;10442;49.932;11.592;2023-03-04T15:56:11;9.17;;;7.10;;
20567;SDS011;10442;49.932;11.592;2023-03-04T15:58:41;10.87;;;7.50;;
20567;SDS011;10442;49.932;11.592;2023-03-04T16:01:13;10.13;;;8.00;;
20567;SDS011;10442;49.932;11.592;2023-03-04T16:03:42;10.50;;;8.20;;
20567;SDS011;10442;49.932;11.592;2023-03-04T16:06:11;16.20;;;7.73;;
20567;SDS011;10442;49.932;11.592;2023-03-04T16:08:40;11.17;;;6.60;;
20567;SDS011;10442;49.932;11.592;2023-03-04T16:11:13;10.80;;;8.13;;
20567;SDS011;10442;49.932;11.592;2023-03-04T16:13:44;10.63;;;6.63;;
20567;SDS011;10442;49.932;11.592;2023-03-04T16:16:12;12.50;;;9.03;;
20567;SDS011;10442;49.932;11.592;2023-03-04T16:18:40;14.70;;;7.47;;
20567;SDS011;10442;49.932;11.592;2023-03-04T16:21:12;9.97;;;7.70;;
20567;SDS011;10442;49.932;11.592;2023-03-04T16:23:43;13.47;;;7.33;;
20567;SDS011;10442;49.932;11.592;2023-03-04T16:26:19;9.60;;;6.53;;
20567;SDS011;10442;49.932;11.592;2023-03-04T16:28:48;11.63;;;9.27;;
20567;SDS011;10442;49.932;11.592;2023-03-04T16:31:16;15.23;;;8.77;;
20567;SDS011;10442;49.932;11.592;2023-03-04T16:33:44;11.17;;;8.23;;
20567;SDS011;10442;49.932;11.592;2023-03-04T16:36:22;11.23;;;7.90;;
20567;SDS011;10442;49.932;11.592;2023-03-04T16:38:52;12.43;;;9.47;;